Time;durP1;ratioP1;P1;durP2;ratioP2;P2;SDS_P1;SDS_P2;PMS_P1;PMS_P2;Temp;Humidity;BMP_temperature;BMP_pressure;BME280_temperature;BME280_humidity;BME280_pressure;Samples;Min_cycle;Max_cycle;Signal;HPM_P1;HPM_P2
2023/02/28 00:00:43;;;;;;;8.55;3.60;;;;;;;5.99;62.51;103308.69;4983682;28;20034;-39
2023/02/28 00:03:08;;;;;;;7.65;3.42;;;;;;;6.21;62.46;103300.75;4980593;28;20038;-42
2023/02/28 00:05:33;;;;;;;7.07;3.72;;;;;;;6.33;62.14;103301.59;4984563;28;20117;-43
2023/02/28 00:08:00;;;;;;;8.55;4.32;;;;;;;6.34;62.06;103302.50;5011191;23;20484;-44
2023/02/28 00:10:28;;;;;;;8.23;3.63;;;;;;;6.48;62.07;103309.50;5008845;28;20069;-45
2023/02/28 00:12:56;;;;;;;10.63;3.88;;;;;;;6.49;61.86;103311.28;5009462;28;20110;-43
2023/02/28 00:15:23;;;;;;;7.70;3.65;;;;;;;6.57;61.81;103312.72;5004746;28;20026;-45
2023/02/28 00:17:48;;;;;;;9.65;3.78;;;;;;;6.63;61.66;103312.25;5008442;28;20042;-43
2023/02/28 00:20:14;;;;;;;7.28;3.65;;;;;;;6.74;61.45;103314.78;5007265;28;20377;-49
2023/02/28 00:22:41;;;;;;;6.47;3.33;;;;;;;6.83;61.35;103311.91;5006683;28;20137;-50
2023/02/28 00:25:08;;;;;;;6.93;3.60;;;;;;;6.70;61.74;103307.59;5002013;28;20030;-43
2023/02/28 00:27:35;;;;;;;6.70;3.80;;;;;;;6.76;60.98;103313.19;5005447;28;20057;-53
2023/02/28 00:30:00;;;;;;;6.93;3.67;;;;;;;6.82;61.39;103308.41;5001507;28;20026;-44
2023/02/28 00:32:26;;;;;;;8.15;4.10;;;;;;;6.78;61.79;103310.69;5005414;28;20485;-44
2023/02/28 00:34:51;;;;;;;8.48;3.75;;;;;;;6.85;61.72;103312.88;5005714;28;20088;-45
2023/02/28 00:37:16;;;;;;;8.93;3.75;;;;;;;6.91;61.68;103311.59;5002378;28;20037;-43
2023/02/28 00:39:42;;;;;;;7.60;3.58;;;;;;;6.93;62.11;103314.31;5008021;28;20416;-47
2023/02/28 00:42:07;;;;;;;5.65;3.50;;;;;;;7.07;61.41;103307.47;5002328;28;20028;-46
2023/02/28 00:44:33;;;;;;;8.25;3.83;;;;;;;6.83;62.65;103306.72;5004474;28;20038;-44
2023/02/28 00:47:00;;;;;;;8.65;3.80;;;;;;;7.03;61.80;103306.34;4982672;28;20109;-45
2023/02/28 00:49:26;;;;;;;7.28;3.78;;;;;;;7.10;61.60;103308.53;5007383;28;20432;-43
2023/02/28 00:51:53;;;;;;;7.40;3.83;;;;;;;7.10;61.50;103305.94;5005555;28;20057;-44
2023/02/28 00:54:19;;;;;;;8.40;3.53;;;;;;;7.10;61.87;103305.06;4999365;28;20069;-42
2023/02/28 00:56:45;;;;;;;8.55;3.78;;;;;;;7.20;61.38;103294.47;5003246;28;20065;-42
2023/02/28 00:59:11;;;;;;;8.15;3.90;;;;;;;7.23;61.25;103293.00;5000268;28;20036;-45
2023/02/28 01:01:36;;;;;;;7.97;3.80;;;;;;;7.01;62.18;103305.38;5004018;28;20034;-44
2023/02/28 01:04:02;;;;;;;7.07;3.97;;;;;;;7.22;61.33;103306.75;5000147;28;20118;-46
2023/02/28 01:06:28;;;;;;;8.15;4.18;;;;;;;7.02;62.04;103301.94;5002245;28;20049;-44
2023/02/28 01:08:53;;;;;;;7.18;3.55;;;;;;;7.24;61.28;103305.16;5004193;28;20042;-44
2023/02/28 01:11:19;;;;;;;10.93;4.00;;;;;;;7.22;61.36;103306.75;5000764;28;20034;-46
2023/02/28 01:13:45;;;;;;;8.60;3.95;;;;;;;7.23;61.35;103307.66;5004200;28;20038;-44
2023/02/28 01:16:10;;;;;;;7.60;3.90;;;;;;;7.29;61.10;103306.38;5000170;28;20038;-43
2023/02/28 01:18:37;;;;;;;8.10;4.03;;;;;;;7.21;61.43;103306.66;5005043;28;20507;-46
2023/02/28 01:21:12;;;;;;;8.10;4.15;;;;;;;7.36;61.06;103307.66;5001449;28;20038;-47
2023/02/28 01:23:38;;;;;;;9.25;3.72;;;;;;;7.45;61.11;103312.53;5004257;28;20030;-45
2023/02/28 01:26:12;;;;;;;8.43;3.88;;;;;;;7.38;61.17;103307.78;5001342;28;20041;-47
2023/02/28 01:28:38;;;;;;;7.13;4.07;;;;;;;7.12;62.06;103313.84;5006923;28;20116;-43
2023/02/28 01:31:03;;;;;;;10.25;4.55;;;;;;;7.03;62.32;103310.63;5001084;28;20117;-47
2023/02/28 01:33:29;;;;;;;8.15;4.20;;;;;;;7.20;61.84;103318.72;5007205;28;20044;-44
2023/02/28 01:35:59;;;;;;;9.45;4.25;;;;;;;7.16;62.00;103306.34;5002742;28;20038;-47
2023/02/28 01:38:24;;;;;;;8.43;4.28;;;;;;;7.35;61.36;103311.06;5003661;28;20253;-44
2023/02/28 01:40:50;;;;;;;9.48;4.85;;;;;;;7.25;61.80;103301.78;5003335;28;20036;-44
2023/02/28 01:43:31;;;;;;;8.35;4.70;;;;;;;7.31;61.89;103303.88;5001757;28;20034;-45
2023/02/28 01:45:58;;;;;;;7.80;4.68;;;;;;;7.43;61.64;103304.66;5001777;28;20034;-44
2023/02/28 01:48:36;;;;;;;8.40;4.70;;;;;;;7.36;61.54;103297.28;5005238;28;20492;-46
2023/02/28 01:51:09;;;;;;;10.00;4.93;;;;;;;7.41;61.43;103297.56;4999204;28;20407;-45
2023/02/28 01:53:41;;;;;;;9.13;4.78;;;;;;;7.31;62.27;103293.50;5002679;28;20025;-45
2023/02/28 01:56:09;;;;;;;9.95;4.88;;;;;;;7.31;62.28;103294.41;4999408;28;20034;-46
2023/02/28 01:58:36;;;;;;;11.88;5.00;;;;;;;7.36;62.25;103286.00;5003005;28;20033;-44
2023/02/28 02:01:02;;;;;;;9.13;5.10;;;;;;;7.43;61.92;103293.41;4999764;28;20095;-46
2023/02/28 02:03:29;;;;;;;8.25;5.32;;;;;;;7.38;62.27;103287.88;5002702;28;20116;-46
2023/02/28 02:05:54;;;;;;;11.05;5.13;;;;;;;7.46;62.07;103284.09;5000966;28;20041;-44
2023/02/28 02:08:23;;;;;;;12.48;5.50;;;;;;;7.40;62.43;103277.59;5000150;28;20034;-42
2023/02/28 02:10:53;;;;;;;10.68;5.28;;;;;;;7.45;62.35;103276.19;5002475;28;20030;-43
2023/02/28 02:13:46;;;;;;;10.23;4.90;;;;;;;7.24;63.26;103273.13;4999065;28;20588;-44
2023/02/28 02:16:15;;;;;;;12.25;4.68;;;;;;;7.41;63.13;103276.81;4998386;28;20523;-46
2023/02/28 02:18:47;;;;;;;11.40;5.32;;;;;;;7.31;63.22;103275.34;5002382;28;20030;-44
2023/02/28 02:21:33;;;;;;;8.50;4.90;;;;;;;7.22;63.58;103278.22;4997983;28;20037;-47
2023/02/28 02:24:40;;;;;;;11.35;5.50;;;;;;;7.43;63.28;103270.03;4998259;28;20038;-48
2023/02/28 02:27:24;;;;;;;11.25;5.00;;;;;;;7.32;63.51;103275.41;4997661;28;20492;-49
2023/02/28 02:30:18;;;;;;;9.60;5.00;;;;;;;7.54;62.88;103277.69;5002082;28;20034;-43
2023/02/28 02:32:58;;;;;;;10.48;5.20;;;;;;;7.54;62.88;103266.41;4998077;28;20042;-45
2023/02/28 02:35:35;;;;;;;8.75;5.07;;;;;;;7.27;63.97;103262.94;4998140;28;20224;-49
2023/02/28 02:38:18;;;;;;;9.15;4.75;;;;;;;7.62;62.77;103268.69;4998160;28;20172;-45
2023/02/28 02:41:13;;;;;;;10.40;5.13;;;;;;;7.66;62.58;103249.94;5000964;28;20092;-47
2023/02/28 02:43:44;;;;;;;10.68;5.38;;;;;;;7.60;62.88;103265.13;4995537;28;20034;-43
2023/02/28 02:46:17;;;;;;;11.88;5.18;;;;;;;7.68;62.75;103263.88;4997593;28;20033;-44
2023/02/28 02:48:45;;;;;;;11.73;4.93;;;;;;;7.70;62.72;103253.59;5001939;28;20034;-45
2023/02/28 02:51:16;;;;;;;8.75;5.30;;;;;;;7.85;62.18;103256.25;4997756;28;20113;-45
2023/02/28 02:53:49;;;;;;;12.10;5.65;;;;;;;7.83;62.45;103256.16;5001680;28;20451;-45
2023/02/28 02:56:17;;;;;;;10.52;5.40;;;;;;;7.91;62.21;103254.94;4997301;28;20040;-48
2023/02/28 02:58:44;;;;;;;10.70;5.50;;;;;;;7.87;61.86;103257.28;5001605;28;20030;-45
2023/02/28 03:01:24;;;;;;;11.15;5.80;;;;;;;7.79;62.47;103259.38;4979936;28;20102;-44
2023/02/28 03:03:50;;;;;;;10.48;5.32;;;;;;;7.85;62.44;103244.19;5002137;28;20128;-46
2023/02/28 03:06:15;;;;;;;10.48;5.72;;;;;;;7.81;62.33;103256.88;4999774;28;20133;-45
2023/02/28 03:08:40;;;;;;;10.50;5.90;;;;;;;7.78;62.27;103254.09;5003712;28;20121;-46
2023/02/28 03:11:14;;;;;;;10.45;5.63;;;;;;;7.84;62.31;103260.56;4999358;28;20114;-44
2023/02/28 03:13:51;;;;;;;9.47;5.50;;;;;;;7.85;62.54;103262.38;5001485;28;20120;-44
2023/02/28 03:16:36;;;;;;;11.43;5.95;;;;;;;7.78;62.96;103260.19;4999497;28;20284;-48
2023/02/28 03:19:28;;;;;;;14.43;6.28;;;;;;;7.72;62.92;103265.00;5002156;28;20058;-43
2023/02/28 03:22:14;;;;;;;11.50;6.20;;;;;;;7.66;63.65;103272.38;5000924;28;20108;-62
2023/02/28 03:25:04;;;;;;;11.77;6.25;;;;;;;7.64;63.45;103269.69;5005314;28;20355;-46
2023/02/28 03:27:54;;;;;;;11.25;6.40;;;;;;;7.69;63.64;103265.69;5001292;28;20030;-52
2023/02/28 03:30:29;;;;;;;13.23;6.07;;;;;;;7.74;63.56;103268.59;4967053;28;20026;-47
2023/02/28 03:32:54;;;;;;;11.55;5.90;;;;;;;7.73;63.85;103261.59;5005645;28;20052;-48
2023/02/28 03:35:26;;;;;;;8.98;5.85;;;;;;;7.74;63.67;103261.66;5005898;28;20125;-43
2023/02/28 03:38:09;;;;;;;12.93;6.55;;;;;;;7.80;63.38;103260.28;5002693;28;20034;-44
2023/02/28 03:40:38;;;;;;;11.95;6.15;;;;;;;7.81;63.54;103262.94;5003956;28;20029;-49
2023/02/28 03:43:11;;;;;;;11.73;6.50;;;;;;;7.71;64.08;103260.59;5003083;28;20038;-44
2023/02/28 03:45:41;;;;;;;11.95;6.57;;;;;;;7.83;63.89;103263.06;5008580;28;20026;-46
2023/02/28 03:48:15;;;;;;;11.63;6.28;;;;;;;7.85;63.72;103251.97;5006845;28;20037;-44
2023/02/28 03:50:44;;;;;;;12.50;6.55;;;;;;;7.78;64.42;103256.69;5009118;28;20033;-47
2023/02/28 03:53:33;;;;;;;13.40;7.18;;;;;;;7.90;63.95;103247.06;5002988;28;20492;-47
2023/02/28 03:56:11;;;;;;;12.40;6.20;;;;;;;7.80;64.44;103255.09;5006304;28;20136;-43
2023/02/28 03:58:59;;;;;;;13.25;6.38;;;;;;;8.01;63.55;103246.91;5008997;28;20044;-44
2023/02/28 04:01:32;;;;;;;10.27;6.20;;;;;;;8.12;63.19;103244.97;5004555;28;20072;-44
2023/02/28 04:03:57;;;;;;;14.68;6.55;;;;;;;8.10;63.37;103244.00;5004040;28;20045;-44
2023/02/28 04:06:24;;;;;;;10.40;6.20;;;;;;;8.18;63.48;103244.44;5007016;28;20026;-43
2023/02/28 04:08:50;;;;;;;11.77;6.18;;;;;;;8.15;63.15;103243.47;5005745;28;20050;-46
2023/02/28 04:11:18;;;;;;;12.05;6.53;;;;;;;8.16;62.91;103246.97;5001130;28;20131;-43
2023/02/28 04:13:43;;;;;;;12.80;6.60;;;;;;;8.14;62.97;103249.47;5004795;28;20424;-45
2023/02/28 04:16:12;;;;;;;11.75;6.57;;;;;;;7.83;63.71;103248.38;5000431;28;20140;-44
2023/02/28 04:18:42;;;;;;;14.38;6.75;;;;;;;7.91;63.26;103248.84;5005232;28;20034;-44
2023/02/28 04:21:09;;;;;;;11.95;6.70;;;;;;;7.90;63.42;103250.56;5001769;28;20107;-45
2023/02/28 04:23:34;;;;;;;10.98;6.55;;;;;;;7.72;63.42;103260.69;5006489;28;20113;-42
2023/02/28 04:25:59;;;;;;;11.73;6.40;;;;;;;7.89;63.09;103260.84;5001853;28;20030;-47
2023/02/28 04:28:26;;;;;;;13.45;6.53;;;;;;;8.08;62.73;103261.19;5004417;28;20053;-48
2023/02/28 04:30:59;;;;;;;17.88;7.25;;;;;;;8.13;62.55;103267.53;5005698;28;20034;-45
2023/02/28 04:33:24;;;;;;;11.07;6.85;;;;;;;8.12;62.45;103263.16;5001751;28;20443;-44
2023/02/28 04:36:00;;;;;;;12.02;6.63;;;;;;;7.97;62.47;103272.59;4987089;28;20042;-45
2023/02/28 04:38:25;;;;;;;13.50;7.07;;;;;;;8.12;62.43;103278.72;5001309;28;20511;-45
2023/02/28 04:40:50;;;;;;;11.27;6.82;;;;;;;8.09;62.47;103271.66;5004678;28;20332;-45
2023/02/28 04:43:16;;;;;;;13.23;7.15;;;;;;;7.97;62.36;103276.09;4983798;28;20152;-44
2023/02/28 04:45:41;;;;;;;14.70;7.18;;;;;;;8.00;63.03;103280.56;5004463;28;20030;-45
2023/02/28 04:48:06;;;;;;;13.15;7.28;;;;;;;8.07;62.61;103273.25;5001092;28;20069;-44
2023/02/28 04:50:31;;;;;;;14.25;7.70;;;;;;;7.97;62.95;103277.81;5004795;28;20036;-50
2023/02/28 04:52:57;;;;;;;11.80;7.30;;;;;;;8.02;63.08;103276.38;5001357;28;20034;-47
2023/02/28 04:55:22;;;;;;;13.60;7.30;;;;;;;8.12;62.74;103282.22;5004087;28;20049;-46
2023/02/28 04:57:48;;;;;;;11.68;7.13;;;;;;;8.05;62.82;103280.06;5003776;28;20057;-44
2023/02/28 05:00:16;;;;;;;12.25;7.13;;;;;;;7.95;63.18;103282.00;5000211;28;20050;-43
2023/02/28 05:02:42;;;;;;;11.45;6.78;;;;;;;7.81;63.54;103280.25;5004181;28;20042;-44
2023/02/28 05:05:07;;;;;;;13.60;6.43;;;;;;;7.91;62.98;103274.81;5000773;28;20037;-44
2023/02/28 05:07:32;;;;;;;13.57;7.00;;;;;;;7.72;63.22;103273.69;5004470;28;20514;-44
2023/02/28 05:09:58;;;;;;;11.90;7.18;;;;;;;7.71;63.47;103279.66;4999427;28;20037;-44
2023/02/28 05:12:23;;;;;;;12.00;6.80;;;;;;;7.91;62.77;103274.81;5003468;28;20044;-45
2023/02/28 05:14:48;;;;;;;12.13;6.50;;;;;;;7.90;63.04;103271.31;5003557;28;20045;-45
2023/02/28 05:17:14;;;;;;;12.85;6.97;;;;;;;7.90;63.23;103266.13;5002014;28;20084;-43
2023/02/28 05:19:39;;;;;;;14.05;7.25;;;;;;;7.90;63.49;103271.31;5005712;28;20038;-50
2023/02/28 05:22:04;;;;;;;13.32;7.15;;;;;;;7.56;64.95;103272.63;4999727;28;20030;-56
2023/02/28 05:24:30;;;;;;;12.52;6.50;;;;;;;7.74;63.87;103278.97;5003928;28;20036;-45
2023/02/28 05:26:55;;;;;;;12.48;7.43;;;;;;;7.53;64.36;103267.22;5000450;28;20062;-48
2023/02/28 05:29:21;;;;;;;15.10;7.57;;;;;;;7.59;64.29;103273.69;5003926;28;20026;-45
2023/02/28 05:31:47;;;;;;;13.63;7.45;;;;;;;7.60;64.13;103272.00;5003122;28;20118;-45
2023/02/28 05:34:15;;;;;;;75.55;49.00;;;;;;;7.73;63.30;103269.38;4998670;28;20112;-44
2023/02/28 05:36:40;;;;;;;11.52;7.68;;;;;;;7.70;62.67;103267.47;5003131;28;20030;-44
2023/02/28 05:39:12;;;;;;;12.85;7.50;;;;;;;7.75;62.33;103279.03;4999572;28;20077;-45
2023/02/28 05:41:38;;;;;;;15.15;7.55;;;;;;;7.82;61.52;103272.53;5003968;28;20033;-44
2023/02/28 05:44:03;;;;;;;13.13;7.22;;;;;;;7.90;61.63;103268.72;5000865;28;20038;-43
2023/02/28 05:46:28;;;;;;;12.43;6.68;;;;;;;7.81;61.60;103267.28;5004770;28;20026;-46
2023/02/28 05:48:55;;;;;;;13.32;7.15;;;;;;;7.85;61.32;103267.56;4999672;28;20038;-60
2023/02/28 05:51:20;;;;;;;13.35;7.45;;;;;;;7.65;61.49;103275.78;5004087;28;20053;-48
2023/02/28 05:53:48;;;;;;;12.35;7.32;;;;;;;7.81;60.69;103267.28;5003889;28;20042;-44
2023/02/28 05:56:13;;;;;;;14.88;6.82;;;;;;;7.55;60.78;103269.13;5001167;28;20044;-46
2023/02/28 05:58:38;;;;;;;13.55;7.13;;;;;;;7.64;60.32;103268.78;5007283;28;20300;-44
2023/02/28 06:01:47;;;;;;;13.73;7.13;;;;;;;7.74;59.91;103278.97;5003810;28;20038;-44
2023/02/28 06:04:17;;;;;;;12.15;7.00;;;;;;;7.68;59.69;103271.66;4942504;28;20118;-47
2023/02/28 06:06:43;;;;;;;11.32;7.00;;;;;;;7.78;59.42;103272.25;5001757;28;20061;-45
2023/02/28 06:09:09;;;;;;;13.15;7.32;;;;;;;7.77;59.86;103270.47;5004689;28;20050;-44
2023/02/28 06:11:34;;;;;;;13.10;7.70;;;;;;;7.14;59.75;103268.13;5008123;28;20049;-45
2023/02/28 06:14:01;;;;;;;13.07;7.07;;;;;;;7.54;59.01;103263.81;5007384;28;20034;-47
2023/02/28 06:16:28;;;;;;;12.55;7.45;;;;;;;7.54;59.36;103274.22;4999625;28;20047;-45
2023/02/28 06:18:55;;;;;;;14.90;7.70;;;;;;;7.57;59.13;103275.28;5004034;28;20038;-44
2023/02/28 06:21:21;;;;;;;12.15;7.10;;;;;;;7.53;58.84;103268.13;5000418;28;20034;-45
2023/02/28 06:23:47;;;;;;;12.80;7.18;;;;;;;7.47;59.27;103269.41;5005880;28;20034;-44
2023/02/28 06:26:12;;;;;;;14.60;7.95;;;;;;;7.61;59.17;103266.91;5000242;28;20092;-45
2023/02/28 06:28:38;;;;;;;12.45;7.60;;;;;;;7.53;59.54;103269.81;5003794;28;20057;-44
2023/02/28 06:31:08;;;;;;;14.40;7.53;;;;;;;7.68;59.61;103276.00;4999812;28;20123;-43
2023/02/28 06:33:33;;;;;;;12.13;7.72;;;;;;;7.43;60.26;103270.94;5004011;28;20089;-44
2023/02/28 06:35:59;;;;;;;15.20;8.20;;;;;;;7.50;59.60;103278.28;5000679;28;20156;-47
2023/02/28 06:38:24;;;;;;;13.02;7.75;;;;;;;7.72;59.37;103277.97;5003298;28;20045;-43
2023/02/28 06:40:54;;;;;;;14.63;8.23;;;;;;;7.64;59.70;103280.06;5002983;28;20034;-45
2023/02/28 06:43:20;;;;;;;15.15;8.35;;;;;;;7.69;59.81;103288.16;4999089;28;20038;-44
2023/02/28 06:45:46;;;;;;;17.38;8.90;;;;;;;7.20;61.15;103278.91;5001807;28;20037;-43
2023/02/28 06:48:11;;;;;;;14.00;8.02;;;;;;;7.06;61.48;103285.81;4997929;28;20030;-44
2023/02/28 06:50:37;;;;;;;11.98;7.90;;;;;;;6.56;62.15;103295.38;5001349;28;20030;-46
2023/02/28 06:53:02;;;;;;;12.75;7.68;;;;;;;6.84;61.71;103291.25;4999097;28;20030;-46
2023/02/28 06:55:27;;;;;;;12.75;7.00;;;;;;;6.53;62.02;103294.28;5001691;28;20025;-47
2023/02/28 06:57:54;;;;;;;11.02;6.68;;;;;;;6.67;61.25;103301.28;5002452;28;20423;-44
2023/02/28 07:00:20;;;;;;;11.35;6.10;;;;;;;6.53;61.46;103302.94;5002490;28;20037;-50
2023/02/28 07:02:46;;;;;;;9.15;5.35;;;;;;;5.98;61.14;103305.97;5007925;28;20062;-46
2023/02/28 07:05:12;;;;;;;11.70;5.47;;;;;;;6.11;60.90;103306.94;5003832;28;20041;-47
2023/02/28 07:07:40;;;;;;;10.80;5.10;;;;;;;6.08;61.44;103313.63;5005226;28;20037;-45
2023/02/28 07:10:06;;;;;;;8.07;5.03;;;;;;;6.27;61.07;103308.94;4999084;28;20037;-45
2023/02/28 07:12:31;;;;;;;10.20;5.35;;;;;;;6.34;61.29;103320.63;5006202;28;20085;-44
2023/02/28 07:14:56;;;;;;;10.90;5.28;;;;;;;6.25;61.67;103320.88;5006405;28;20064;-45
2023/02/28 07:17:22;;;;;;;9.82;5.43;;;;;;;6.18;62.07;103321.22;5007985;28;20061;-44
2023/02/28 07:19:47;;;;;;;18.83;5.80;;;;;;;6.24;62.35;103325.94;5007502;28;20096;-47
2023/02/28 07:22:12;;;;;;;10.20;6.00;;;;;;;6.20;62.34;103327.44;5001530;28;20037;-44
2023/02/28 07:24:38;;;;;;;9.73;5.82;;;;;;;5.98;63.49;103327.59;5006577;28;20399;-44
2023/02/28 07:27:03;;;;;;;9.10;6.07;;;;;;;6.17;63.15;103326.28;5002810;28;20520;-45
2023/02/28 07:29:29;;;;;;;11.07;6.07;;;;;;;6.22;62.92;103325.81;5005306;28;20120;-45
2023/02/28 07:31:54;;;;;;;10.30;6.40;;;;;;;6.16;63.56;103327.97;5003212;28;24884;-44
2023/02/28 07:34:21;;;;;;;11.50;6.63;;;;;;;6.26;63.25;103330.44;5008134;28;20464;-45
2023/02/28 07:36:46;;;;;;;9.88;6.28;;;;;;;6.13;64.03;103332.97;4989136;28;20053;-43
2023/02/28 07:39:11;;;;;;;10.32;6.18;;;;;;;6.06;64.36;103338.50;5002477;28;20042;-44
2023/02/28 07:41:42;;;;;;;15.68;6.65;;;;;;;6.18;64.04;103323.81;5007963;28;20040;-44
2023/02/28 07:44:09;;;;;;;11.32;6.40;;;;;;;6.14;63.92;103333.88;4987243;28;20139;-46
2023/02/28 07:46:36;;;;;;;10.10;6.65;;;;;;;6.17;64.28;103339.25;5006932;28;20026;-45
2023/02/28 07:49:02;;;;;;;12.45;7.07;;;;;;;6.19;63.97;103335.97;5001401;28;20093;-43
2023/02/28 07:51:28;;;;;;;10.95;6.78;;;;;;;6.18;64.17;103341.03;5002402;28;20257;-46
2023/02/28 07:53:54;;;;;;;10.80;6.70;;;;;;;6.17;64.35;103337.56;5003608;28;20454;-43
2023/02/28 07:56:22;;;;;;;12.13;7.00;;;;;;;6.16;64.33;103340.94;4999453;28;20061;-43
2023/02/28 07:58:47;;;;;;;10.73;7.05;;;;;;;6.05;64.24;103340.19;5004124;28;20609;-43
2023/02/28 08:01:13;;;;;;;12.05;7.25;;;;;;;6.04;64.31;103340.97;4999972;28;20125;-46
2023/02/28 08:03:39;;;;;;;11.75;6.95;;;;;;;6.09;64.43;103338.72;4990606;28;20034;-46
2023/02/28 08:06:15;;;;;;;13.80;7.60;;;;;;;6.14;64.11;103341.63;5005067;28;20053;-45
2023/02/28 08:08:41;;;;;;;12.38;7.55;;;;;;;6.07;64.63;103346.38;5006991;28;20038;-44
2023/02/28 08:11:06;;;;;;;12.35;7.15;;;;;;;6.02;64.40;103346.84;4984637;28;20033;-45
2023/02/28 08:13:31;;;;;;;12.55;7.32;;;;;;;6.06;64.61;103351.44;5008724;28;20029;-46
2023/02/28 08:15:57;;;;;;;12.80;7.25;;;;;;;6.14;63.88;103352.91;5002395;28;20112;-43
2023/02/28 08:18:23;;;;;;;12.70;7.38;;;;;;;5.99;64.49;103344.03;5005739;28;20350;-45
2023/02/28 08:20:48;;;;;;;11.45;7.18;;;;;;;6.00;64.62;103349.31;5005071;28;20410;-42
2023/02/28 08:23:14;;;;;;;12.63;7.32;;;;;;;5.90;64.92;103348.56;5002323;28;20084;-47
2023/02/28 08:25:39;;;;;;;13.32;7.40;;;;;;;5.96;64.76;103360.25;5005812;28;20526;-43
2023/02/28 08:28:05;;;;;;;12.40;6.95;;;;;;;5.79;65.10;103350.34;5001051;28;20038;-46
2023/02/28 08:30:30;;;;;;;11.43;7.07;;;;;;;5.91;65.41;103355.56;5005004;28;20133;-46
2023/02/28 08:32:56;;;;;;;11.00;7.03;;;;;;;6.00;65.44;103351.00;5000476;28;20084;-44
2023/02/28 08:35:22;;;;;;;10.13;6.93;;;;;;;6.06;65.53;103351.44;4986327;28;20048;-43
2023/02/28 08:37:48;;;;;;;10.70;7.20;;;;;;;6.19;65.14;103348.03;5003816;28;20049;-42
2023/02/28 08:40:17;;;;;;;12.40;7.03;;;;;;;6.14;65.18;103349.41;4999726;28;20500;-43
2023/02/28 08:42:46;;;;;;;11.35;7.10;;;;;;;6.20;65.40;103344.66;5003922;28;20042;-43
2023/02/28 08:45:12;;;;;;;10.77;7.03;;;;;;;6.36;65.20;103335.47;5000406;28;20030;-44
2023/02/28 08:47:38;;;;;;;11.15;7.13;;;;;;;6.49;65.37;103340.72;5003952;28;20504;-45
2023/02/28 08:50:04;;;;;;;11.18;6.47;;;;;;;6.53;65.35;103343.53;5000579;28;20053;-45
2023/02/28 08:52:30;;;;;;;11.50;6.85;;;;;;;6.26;65.23;103334.72;5003289;28;20432;-44
2023/02/28 08:54:55;;;;;;;10.90;6.28;;;;;;;6.30;66.02;103336.72;5004543;28;20045;-48
2023/02/28 08:57:20;;;;;;;11.43;6.85;;;;;;;6.21;65.93;103334.41;4999191;28;20282;-45
2023/02/28 08:59:46;;;;;;;12.30;6.97;;;;;;;6.42;66.09;103322.94;5003394;28;20076;-43
2023/02/28 09:02:14;;;;;;;9.52;6.50;;;;;;;6.59;64.86;103329.25;4999184;28;20392;-40
2023/02/28 09:04:41;;;;;;;11.07;6.60;;;;;;;6.56;65.18;103333.34;5003316;28;20069;-47
2023/02/28 09:07:07;;;;;;;11.85;7.47;;;;;;;6.25;65.48;103317.38;4998854;28;20041;-44
2023/02/28 09:09:32;;;;;;;11.10;6.88;;;;;;;6.59;65.03;103308.53;5005245;28;20030;-46
2023/02/28 09:11:57;;;;;;;9.68;6.25;;;;;;;6.99;63.97;103311.22;4999017;28;20116;-44
2023/02/28 09:14:23;;;;;;;12.27;6.53;;;;;;;6.59;65.05;103315.44;5002192;28;20048;-47
2023/02/28 09:16:48;;;;;;;12.60;7.20;;;;;;;6.90;64.57;103322.78;5002702;28;20064;-45
2023/02/28 09:19:14;;;;;;;10.50;7.00;;;;;;;6.89;64.35;103335.66;4999080;28;20065;-46
2023/02/28 09:21:39;;;;;;;12.70;7.55;;;;;;;6.57;64.68;103330.88;5001319;28;20142;-44
2023/02/28 09:24:05;;;;;;;14.32;7.55;;;;;;;6.59;65.18;103329.25;4999653;28;20034;-44
2023/02/28 09:26:31;;;;;;;12.63;7.90;;;;;;;6.98;65.44;103328.47;5003105;28;20443;-45
2023/02/28 09:28:58;;;;;;;15.00;8.40;;;;;;;7.14;65.30;103336.47;4985673;28;20038;-44
2023/02/28 09:31:28;;;;;;;12.80;7.22;;;;;;;7.14;65.00;103332.97;4999338;28;20030;-45
2023/02/28 09:33:56;;;;;;;12.23;7.25;;;;;;;7.36;64.26;103336.22;5004281;28;20040;-47
2023/02/28 09:36:23;;;;;;;12.43;7.30;;;;;;;7.49;63.31;103331.03;4999965;28;20038;-44
2023/02/28 09:38:52;;;;;;;12.43;7.60;;;;;;;7.47;63.15;103331.72;5002930;28;20496;-44
2023/02/28 09:41:25;;;;;;;11.73;7.00;;;;;;;7.62;63.30;103322.34;5000549;28;20492;-46
2023/02/28 09:43:59;;;;;;;11.55;7.43;;;;;;;7.77;62.98;103323.28;4995337;28;20030;-45
2023/02/28 09:46:37;;;;;;;13.10;7.88;;;;;;;7.87;63.05;103330.00;5001001;28;20454;-44
2023/02/28 09:49:07;;;;;;;12.25;7.80;;;;;;;7.90;62.52;103330.16;4983177;28;20065;-45
2023/02/28 09:51:58;;;;;;;12.82;7.47;;;;;;;8.01;62.70;103334.34;5004335;28;20113;-44
2023/02/28 09:54:27;;;;;;;12.70;7.35;;;;;;;8.05;62.05;103334.59;4999816;28;20060;-44
2023/02/28 09:57:13;;;;;;;12.60;7.07;;;;;;;7.87;61.56;103328.25;5002559;28;20067;-46
2023/02/28 10:00:10;;;;;;;10.93;6.50;;;;;;;8.03;60.95;103337.94;5000499;28;20458;-43
2023/02/28 10:02:46;;;;;;;10.80;6.20;;;;;;;8.07;60.52;103324.31;5000915;28;20037;-43
2023/02/28 10:05:14;;;;;;;10.85;6.07;;;;;;;8.13;61.03;103330.81;4999203;28;20543;-46
2023/02/28 10:07:54;;;;;;;12.00;5.97;;;;;;;8.37;60.45;103330.56;5002535;28;20060;-43
2023/02/28 10:10:26;;;;;;;11.10;5.20;;;;;;;7.82;60.37;103334.88;4998961;28;20120;-45
2023/02/28 10:12:54;;;;;;;8.43;5.00;;;;;;;7.58;59.89;103331.59;4986307;28;20399;-42
2023/02/28 10:15:24;;;;;;;8.38;4.95;;;;;;;8.04;60.60;103343.25;5000747;28;20026;-42
2023/02/28 10:17:57;;;;;;;8.75;5.22;;;;;;;8.14;60.07;103334.31;5001719;28;20137;-44
2023/02/28 10:20:29;;;;;;;9.10;5.45;;;;;;;8.42;59.46;103331.72;4980510;28;20117;-41
2023/02/28 10:23:07;;;;;;;12.00;5.20;;;;;;;8.76;58.63;103327.78;5000358;28;20040;-43
2023/02/28 10:25:34;;;;;;;10.68;5.35;;;;;;;8.64;58.83;103328.75;4981345;28;20026;-44
2023/02/28 10:28:26;;;;;;;9.35;5.40;;;;;;;8.84;58.61;103336.91;4998135;28;20391;-45
2023/02/28 10:30:53;;;;;;;8.82;5.47;;;;;;;8.63;58.25;103337.34;5000621;28;20065;-45
2023/02/28 10:33:23;;;;;;;12.30;5.80;;;;;;;8.57;58.77;103335.28;4999629;28;20026;-46
2023/02/28 10:35:49;;;;;;;8.18;5.38;;;;;;;8.28;58.43;103329.97;5001227;28;20046;-45
2023/02/28 10:38:35;;;;;;;7.80;5.30;;;;;;;8.74;56.94;103331.97;4979617;28;20115;-45
2023/02/28 10:41:30;;;;;;;9.00;5.25;;;;;;;8.49;56.70;103342.59;4997604;28;20116;-45
2023/02/28 10:44:17;;;;;;;;;;;;;;;8.29;57.39;103339.56;5001805;28;20512;-42
2023/02/28 10:46:43;;;;;;;10.50;5.60;;;;;;;8.51;57.78;103338.41;4997646;28;19914;-46
2023/02/28 10:49:23;;;;;;;9.45;5.30;;;;;;;8.19;57.39;103335.47;4997646;28;20492;-45
2023/02/28 10:51:54;;;;;;;9.40;4.70;;;;;;;7.94;54.88;103338.25;5001922;28;20037;-46
2023/02/28 10:54:30;;;;;;;10.45;5.07;;;;;;;7.72;53.23;103332.50;4998368;28;20057;-44
2023/02/28 10:57:15;;;;;;;8.52;5.07;;;;;;;8.07;52.90;103325.22;4997882;28;20048;-44
2023/02/28 10:59:40;;;;;;;8.80;5.00;;;;;;;8.14;52.57;103324.81;4983888;28;20049;-45
2023/02/28 11:02:31;;;;;;;8.18;4.93;;;;;;;8.41;51.44;103329.97;4997785;28;20029;-45
2023/02/28 11:04:56;;;;;;;9.38;4.80;;;;;;;8.77;50.88;103320.88;4991726;28;20050;-44
2023/02/28 11:07:23;;;;;;;7.60;4.80;;;;;;;9.23;51.05;103316.63;4997499;28;20034;-43
2023/02/28 11:09:50;;;;;;;8.07;4.85;;;;;;;9.42;49.73;103314.28;4983871;28;20038;-44
2023/02/28 11:12:21;;;;;;;7.60;4.78;;;;;;;9.44;49.57;103315.28;4996632;28;20030;-44
2023/02/28 11:14:56;;;;;;;8.10;5.10;;;;;;;9.37;48.79;103315.72;5001546;28;20045;-45
2023/02/28 11:17:25;;;;;;;9.82;4.80;;;;;;;8.57;48.92;103300.56;4997533;28;20034;-48
2023/02/28 11:19:55;;;;;;;9.05;4.60;;;;;;;8.53;46.83;103303.00;5001619;28;20038;-44
2023/02/28 11:22:32;;;;;;;8.20;4.80;;;;;;;8.71;48.38;103303.19;4998056;28;20076;-45
2023/02/28 11:25:06;;;;;;;9.57;4.97;;;;;;;8.22;48.74;103295.81;5000932;28;20192;-43
2023/02/28 11:27:31;;;;;;;8.00;4.85;;;;;;;8.24;47.67;103296.78;5007015;28;20464;-43
2023/02/28 11:30:00;;;;;;;7.90;4.80;;;;;;;8.37;45.48;103299.34;5000812;28;20109;-44
2023/02/28 11:32:28;;;;;;;6.88;4.65;;;;;;;8.51;45.78;103294.19;5002250;28;20100;-45
2023/02/28 11:35:16;;;;;;;7.18;4.30;;;;;;;8.57;45.20;103291.06;5009205;28;20045;-46
2023/02/28 11:37:42;;;;;;;9.13;4.88;;;;;;;8.66;45.64;103295.94;5003491;28;20129;-43
2023/02/28 11:40:43;;;;;;;7.30;4.82;;;;;;;8.96;45.83;103292.53;5001359;28;20094;-46